sensor_id;sensor_type;location;lat;lon;timestamp;temperature;humidity
15717;DHT22;7960;50.908;4.204;2023-04-03T00:01:36;4.50;99.90
15717;DHT22;7960;50.908;4.204;2023-04-03T00:04:04;4.60;99.90
15717;DHT22;7960;50.908;4.204;2023-04-03T00:06:33;4.60;99.90
15717;DHT22;7960;50.908;4.204;2023-04-03T00:09:01;4.50;99.90
15717;DHT22;7960;50.908;4.204;2023-04-03T00:11:28;4.40;99.90
15717;DHT22;7960;50.908;4.204;2023-04-03T00:13:55;4.30;99.90
15717;DHT22;7960;50.908;4.204;2023-04-03T00:16:23;4.30;99.90
15717;DHT22;7960;50.908;4.204;2023-04-03T00:18:50;4.30;99.90
15717;DHT22;7960;50.908;4.204;2023-04-03T00:21:17;4.40;99.90
15717;DHT22;7960;50.908;4.204;2023-04-03T00:23:44;4.40;99.90
15717;DHT22;7960;50.908;4.204;2023-04-03T00:26:11;4.40;99.90
15717;DHT22;7960;50.908;4.204;2023-04-03T00:28:38;4.30;99.90
15717;DHT22;7960;50.908;4.204;2023-04-03T00:31:05;4.40;99.90
15717;DHT22;7960;50.908;4.204;2023-04-03T00:33:33;4.20;99.90
15717;DHT22;7960;50.908;4.204;2023-04-03T00:36:05;4.20;99.90
15717;DHT22;7960;50.908;4.204;2023-04-03T00:38:33;4.20;99.90
15717;DHT22;7960;50.908;4.204;2023-04-03T00:41:00;4.10;99.90
15717;DHT22;7960;50.908;4.204;2023-04-03T00:43:27;4.10;99.90
15717;DHT22;7960;50.908;4.204;2023-04-03T00:45:55;4.00;99.90
15717;DHT22;7960;50.908;4.204;2023-04-03T00:48:26;4.00;99.90
15717;DHT22;7960;50.908;4.204;2023-04-03T00:50:56;3.90;99.90
15717;DHT22;7960;50.908;4.204;2023-04-03T00:53:26;3.80;99.90
15717;DHT22;7960;50.908;4.204;2023-04-03T00:55:54;3.80;99.90
15717;DHT22;7960;50.908;4.204;2023-04-03T00:58:27;3.80;99.90
15717;DHT22;7960;50.908;4.204;2023-04-03T01:00:57;3.70;99.90
15717;DHT22;7960;50.908;4.204;2023-04-03T01:03:25;3.80;99.90
15717;DHT22;7960;50.908;4.204;2023-04-03T01:05:52;3.70;99.90
15717;DHT22;7960;50.908;4.204;2023-04-03T01:08:22;3.40;99.90
15717;DHT22;7960;50.908;4.204;2023-04-03T01:10:49;3.50;99.90
15717;DHT22;7960;50.908;4.204;2023-04-03T01:13:22;3.60;99.90
15717;DHT22;7960;50.908;4.204;2023-04-03T01:15:50;3.60;99.90
15717;DHT22;7960;50.908;4.204;2023-04-03T01:18:17;3.60;99.90
15717;DHT22;7960;50.908;4.204;2023-04-03T01:24:01;3.60;99.90
15717;DHT22;7960;50.908;4.204;2023-04-03T01:26:33;3.60;99.90
15717;DHT22;7960;50.908;4.204;2023-04-03T01:29:01;3.50;99.90
15717;DHT22;7960;50.908;4.204;2023-04-03T01:31:31;3.60;99.90
15717;DHT22;7960;50.908;4.204;2023-04-03T01:34:00;3.60;99.90
15717;DHT22;7960;50.908;4.204;2023-04-03T01:36:30;3.60;99.90
15717;DHT22;7960;50.908;4.204;2023-04-03T01:38:58;3.80;99.90
15717;DHT22;7960;50.908;4.204;2023-04-03T01:41:25;3.50;99.90
15717;DHT22;7960;50.908;4.204;2023-04-03T01:43:52;3.50;99.90
15717;DHT22;7960;50.908;4.204;2023-04-03T01:46:20;3.60;99.90
15717;DHT22;7960;50.908;4.204;2023-04-03T01:48:47;3.50;99.90
15717;DHT22;7960;50.908;4.204;2023-04-03T01:51:16;3.50;99.90
15717;DHT22;7960;50.908;4.204;2023-04-03T01:53:43;3.50;99.90
15717;DHT22;7960;50.908;4.204;2023-04-03T01:56:10;3.40;99.90
15717;DHT22;7960;50.908;4.204;2023-04-03T01:58:37;3.50;99.90
15717;DHT22;7960;50.908;4.204;2023-04-03T02:01:04;3.40;99.90
15717;DHT22;7960;50.908;4.204;2023-04-03T02:03:32;3.30;99.90
15717;DHT22;7960;50.908;4.204;2023-04-03T02:06:00;3.30;99.90
15717;DHT22;7960;50.908;4.204;2023-04-03T02:08:28;3.40;99.90
15717;DHT22;7960;50.908;4.204;2023-04-03T02:10:55;3.40;99.90
15717;DHT22;7960;50.908;4.204;2023-04-03T02:13:22;3.40;99.90
15717;DHT22;7960;50.908;4.204;2023-04-03T02:15:49;3.50;99.90
15717;DHT22;7960;50.908;4.204;2023-04-03T02:18:16;3.40;99.90
15717;DHT22;7960;50.908;4.204;2023-04-03T02:20:43;3.50;99.90
15717;DHT22;7960;50.908;4.204;2023-04-03T02:23:10;3.40;99.90
15717;DHT22;7960;50.908;4.204;2023-04-03T02:25:39;3.40;99.90
15717;DHT22;7960;50.908;4.204;2023-04-03T02:28:06;3.40;99.90
15717;DHT22;7960;50.908;4.204;2023-04-03T02:30:33;3.50;99.90
15717;DHT22;7960;50.908;4.204;2023-04-03T02:33:00;3.40;99.90
15717;DHT22;7960;50.908;4.204;2023-04-03T02:35:26;3.40;99.90
15717;DHT22;7960;50.908;4.204;2023-04-03T02:37:53;3.40;99.90
15717;DHT22;7960;50.908;4.204;2023-04-03T02:40:21;3.40;99.90
15717;DHT22;7960;50.908;4.204;2023-04-03T02:42:49;3.40;99.90
15717;DHT22;7960;50.908;4.204;2023-04-03T02:45:16;3.40;99.90
15717;DHT22;7960;50.908;4.204;2023-04-03T02:47:43;3.20;99.90
15717;DHT22;7960;50.908;4.204;2023-04-03T02:50:10;3.20;99.90
15717;DHT22;7960;50.908;4.204;2023-04-03T02:52:37;3.20;99.90
15717;DHT22;7960;50.908;4.204;2023-04-03T02:55:05;3.20;99.90
15717;DHT22;7960;50.908;4.204;2023-04-03T02:57:32;3.10;99.90
15717;DHT22;7960;50.908;4.204;2023-04-03T03:00:00;3.10;99.90
15717;DHT22;7960;50.908;4.204;2023-04-03T03:02:27;3.20;99.90
15717;DHT22;7960;50.908;4.204;2023-04-03T03:04:54;3.30;99.90
15717;DHT22;7960;50.908;4.204;2023-04-03T03:07:21;3.20;99.90
15717;DHT22;7960;50.908;4.204;2023-04-03T03:09:48;3.10;99.90
15717;DHT22;7960;50.908;4.204;2023-04-03T03:12:15;3.10;99.90
15717;DHT22;7960;50.908;4.204;2023-04-03T03:14:46;3.20;99.90
15717;DHT22;7960;50.908;4.204;2023-04-03T03:17:15;3.10;99.90
15717;DHT22;7960;50.908;4.204;2023-04-03T03:19:42;3.10;99.90
15717;DHT22;7960;50.908;4.204;2023-04-03T03:22:11;3.20;99.90
15717;DHT22;7960;50.908;4.204;2023-04-03T03:24:38;3.20;99.90
15717;DHT22;7960;50.908;4.204;2023-04-03T03:27:05;3.30;99.90
15717;DHT22;7960;50.908;4.204;2023-04-03T03:29:32;3.40;99.90
15717;DHT22;7960;50.908;4.204;2023-04-03T03:31:59;3.40;99.90
15717;DHT22;7960;50.908;4.204;2023-04-03T03:34:27;3.30;99.90
15717;DHT22;7960;50.908;4.204;2023-04-03T03:36:54;3.20;99.90
15717;DHT22;7960;50.908;4.204;2023-04-03T03:39:21;3.30;99.90
15717;DHT22;7960;50.908;4.204;2023-04-03T03:41:48;3.40;99.90
15717;DHT22;7960;50.908;4.204;2023-04-03T03:44:16;3.40;99.90
15717;DHT22;7960;50.908;4.204;2023-04-03T03:46:43;3.50;99.90
15717;DHT22;7960;50.908;4.204;2023-04-03T03:49:10;3.40;99.90
15717;DHT22;7960;50.908;4.204;2023-04-03T03:51:39;3.30;99.90
15717;DHT22;7960;50.908;4.204;2023-04-03T03:54:07;3.40;99.90
15717;DHT22;7960;50.908;4.204;2023-04-03T03:56:34;3.40;99.90
15717;DHT22;7960;50.908;4.204;2023-04-03T03:59:01;3.30;99.90
15717;DHT22;7960;50.908;4.204;2023-04-03T04:01:30;3.30;99.90
15717;DHT22;7960;50.908;4.204;2023-04-03T04:03:57;3.20;99.90
15717;DHT22;7960;50.908;4.204;2023-04-03T04:06:24;3.20;99.90
15717;DHT22;7960;50.908;4.204;2023-04-03T04:08:53;3.20;99.90
15717;DHT22;7960;50.908;4.204;2023-04-03T04:11:20;3.10;99.90
15717;DHT22;7960;50.908;4.204;2023-04-03T04:13:47;3.20;99.90
15717;DHT22;7960;50.908;4.204;2023-04-03T04:16:14;3.20;99.90
15717;DHT22;7960;50.908;4.204;2023-04-03T04:18:41;3.20;99.90
15717;DHT22;7960;50.908;4.204;2023-04-03T04:23:49;3.10;99.90
15717;DHT22;7960;50.908;4.204;2023-04-03T04:26:17;3.10;99.90
15717;DHT22;7960;50.908;4.204;2023-04-03T04:28:44;3.00;99.90
15717;DHT22;7960;50.908;4.204;2023-04-03T04:31:10;3.00;99.90
15717;DHT22;7960;50.908;4.204;2023-04-03T04:33:37;3.10;99.90
15717;DHT22;7960;50.908;4.204;2023-04-03T04:36:04;3.10;99.90
15717;DHT22;7960;50.908;4.204;2023-04-03T04:38:31;3.00;99.90
15717;DHT22;7960;50.908;4.204;2023-04-03T04:40:58;3.00;99.90
15717;DHT22;7960;50.908;4.204;2023-04-03T04:43:26;3.00;99.90
15717;DHT22;7960;50.908;4.204;2023-04-03T04:46:01;3.00;99.90
15717;DHT22;7960;50.908;4.204;2023-04-03T04:48:29;3.10;99.90
15717;DHT22;7960;50.908;4.204;2023-04-03T04:50:56;2.90;99.90
15717;DHT22;7960;50.908;4.204;2023-04-03T04:53:23;3.00;99.90
15717;DHT22;7960;50.908;4.204;2023-04-03T04:55:49;3.00;99.90
15717;DHT22;7960;50.908;4.204;2023-04-03T04:58:17;2.80;99.90
15717;DHT22;7960;50.908;4.204;2023-04-03T05:00:45;2.90;99.90
15717;DHT22;7960;50.908;4.204;2023-04-03T05:03:12;2.80;99.90
15717;DHT22;7960;50.908;4.204;2023-04-03T05:05:39;2.90;99.90
15717;DHT22;7960;50.908;4.204;2023-04-03T05:08:06;2.90;99.90
15717;DHT22;7960;50.908;4.204;2023-04-03T05:10:34;3.00;99.90
15717;DHT22;7960;50.908;4.204;2023-04-03T05:13:00;3.00;99.90
15717;DHT22;7960;50.908;4.204;2023-04-03T05:15:27;2.90;99.90
15717;DHT22;7960;50.908;4.204;2023-04-03T05:17:55;2.60;99.90
15717;DHT22;7960;50.908;4.204;2023-04-03T05:20:22;2.60;99.90
15717;DHT22;7960;50.908;4.204;2023-04-03T05:22:49;2.70;99.90
15717;DHT22;7960;50.908;4.204;2023-04-03T05:25:16;2.70;99.90
15717;DHT22;7960;50.908;4.204;2023-04-03T05:27:43;2.90;99.90
15717;DHT22;7960;50.908;4.204;2023-04-03T05:30:11;2.90;99.90
15717;DHT22;7960;50.908;4.204;2023-04-03T05:32:38;2.70;99.90
15717;DHT22;7960;50.908;4.204;2023-04-03T05:35:07;2.60;99.90
15717;DHT22;7960;50.908;4.204;2023-04-03T05:37:35;2.60;99.90
15717;DHT22;7960;50.908;4.204;2023-04-03T05:40:03;2.70;99.90
15717;DHT22;7960;50.908;4.204;2023-04-03T05:42:30;2.80;99.90
15717;DHT22;7960;50.908;4.204;2023-04-03T05:44:57;2.80;99.90
15717;DHT22;7960;50.908;4.204;2023-04-03T05:47:24;2.90;99.90
15717;DHT22;7960;50.908;4.204;2023-04-03T05:49:50;2.90;99.90
15717;DHT22;7960;50.908;4.204;2023-04-03T05:52:21;2.90;99.90
15717;DHT22;7960;50.908;4.204;2023-04-03T05:54:49;2.70;99.90
15717;DHT22;7960;50.908;4.204;2023-04-03T05:57:16;2.80;99.90
15717;DHT22;7960;50.908;4.204;2023-04-03T05:59:43;2.70;99.90
15717;DHT22;7960;50.908;4.204;2023-04-03T06:02:11;2.70;99.90
15717;DHT22;7960;50.908;4.204;2023-04-03T06:04:39;2.90;99.90
15717;DHT22;7960;50.908;4.204;2023-04-03T06:07:06;2.80;99.90
15717;DHT22;7960;50.908;4.204;2023-04-03T06:09:34;2.90;99.90
15717;DHT22;7960;50.908;4.204;2023-04-03T06:12:01;3.00;99.90
15717;DHT22;7960;50.908;4.204;2023-04-03T06:14:28;2.90;99.90
15717;DHT22;7960;50.908;4.204;2023-04-03T06:16:55;3.00;99.90
15717;DHT22;7960;50.908;4.204;2023-04-03T06:19:22;3.00;99.90
15717;DHT22;7960;50.908;4.204;2023-04-03T06:21:49;3.20;99.90
15717;DHT22;7960;50.908;4.204;2023-04-03T06:24:17;3.10;99.90
15717;DHT22;7960;50.908;4.204;2023-04-03T06:26:46;3.20;99.90
15717;DHT22;7960;50.908;4.204;2023-04-03T06:29:14;3.30;99.90
15717;DHT22;7960;50.908;4.204;2023-04-03T06:31:41;3.40;99.90
15717;DHT22;7960;50.908;4.204;2023-04-03T06:34:08;3.40;99.90
15717;DHT22;7960;50.908;4.204;2023-04-03T06:36:36;3.40;99.90
15717;DHT22;7960;50.908;4.204;2023-04-03T06:39:03;3.30;99.90
15717;DHT22;7960;50.908;4.204;2023-04-03T06:41:30;3.40;99.90
15717;DHT22;7960;50.908;4.204;2023-04-03T06:43:58;3.40;99.90
15717;DHT22;7960;50.908;4.204;2023-04-03T06:46:26;3.40;99.90
15717;DHT22;7960;50.908;4.204;2023-04-03T06:48:53;3.40;99.90
15717;DHT22;7960;50.908;4.204;2023-04-03T06:51:22;3.50;99.90
15717;DHT22;7960;50.908;4.204;2023-04-03T06:53:52;3.50;99.90
15717;DHT22;7960;50.908;4.204;2023-04-03T06:56:20;3.60;99.90
15717;DHT22;7960;50.908;4.204;2023-04-03T06:58:48;3.60;99.90
15717;DHT22;7960;50.908;4.204;2023-04-03T07:01:21;3.70;99.90
15717;DHT22;7960;50.908;4.204;2023-04-03T07:03:48;3.70;99.90
15717;DHT22;7960;50.908;4.204;2023-04-03T07:06:16;3.80;99.90
15717;DHT22;7960;50.908;4.204;2023-04-03T07:08:46;3.80;99.90
15717;DHT22;7960;50.908;4.204;2023-04-03T07:11:15;3.80;99.90
15717;DHT22;7960;50.908;4.204;2023-04-03T07:13:42;3.90;99.90
15717;DHT22;7960;50.908;4.204;2023-04-03T07:16:09;4.00;99.90
15717;DHT22;7960;50.908;4.204;2023-04-03T07:18:37;4.00;99.90
15717;DHT22;7960;50.908;4.204;2023-04-03T07:21:08;4.10;99.90
15717;DHT22;7960;50.908;4.204;2023-04-03T07:23:35;4.20;99.90
15717;DHT22;7960;50.908;4.204;2023-04-03T07:26:02;4.20;99.90
15717;DHT22;7960;50.908;4.204;2023-04-03T07:28:29;4.20;99.90
15717;DHT22;7960;50.908;4.204;2023-04-03T07:31:01;4.30;99.90
15717;DHT22;7960;50.908;4.204;2023-04-03T07:33:29;4.40;99.90
15717;DHT22;7960;50.908;4.204;2023-04-03T07:35:59;4.50;99.90
15717;DHT22;7960;50.908;4.204;2023-04-03T07:38:26;4.60;99.90
15717;DHT22;7960;50.908;4.204;2023-04-03T07:40:53;4.70;99.90
15717;DHT22;7960;50.908;4.204;2023-04-03T07:43:21;4.90;99.90
15717;DHT22;7960;50.908;4.204;2023-04-03T07:45:50;4.90;99.90
15717;DHT22;7960;50.908;4.204;2023-04-03T07:48:19;4.90;99.90
15717;DHT22;7960;50.908;4.204;2023-04-03T07:50:46;4.90;99.90
15717;DHT22;7960;50.908;4.204;2023-04-03T07:53:15;4.90;99.90
15717;DHT22;7960;50.908;4.204;2023-04-03T07:55:42;5.00;99.90
15717;DHT22;7960;50.908;4.204;2023-04-03T07:58:10;5.10;99.90
15717;DHT22;7960;50.908;4.204;2023-04-03T08:00:39;5.20;99.90
15717;DHT22;7960;50.908;4.204;2023-04-03T08:03:07;5.20;99.90
15717;DHT22;7960;50.908;4.204;2023-04-03T08:05:36;5.30;99.90
15717;DHT22;7960;50.908;4.204;2023-04-03T08:08:04;5.50;99.90
15717;DHT22;7960;50.908;4.204;2023-04-03T08:10:33;5.50;99.90
15717;DHT22;7960;50.908;4.204;2023-04-03T08:13:03;5.60;99.90
15717;DHT22;7960;50.908;4.204;2023-04-03T08:15:30;5.70;99.90
15717;DHT22;7960;50.908;4.204;2023-04-03T08:17:58;5.80;99.90
15717;DHT22;7960;50.908;4.204;2023-04-03T08:20:25;5.80;99.90
15717;DHT22;7960;50.908;4.204;2023-04-03T08:22:52;5.90;99.90
15717;DHT22;7960;50.908;4.204;2023-04-03T08:25:18;5.90;99.90
15717;DHT22;7960;50.908;4.204;2023-04-03T08:27:47;6.10;99.90
15717;DHT22;7960;50.908;4.204;2023-04-03T08:30:14;6.10;99.90
15717;DHT22;7960;50.908;4.204;2023-04-03T08:32:41;6.20;99.90
15717;DHT22;7960;50.908;4.204;2023-04-03T08:35:09;6.30;99.90
15717;DHT22;7960;50.908;4.204;2023-04-03T08:37:37;6.40;99.90
15717;DHT22;7960;50.908;4.204;2023-04-03T08:40:05;6.40;99.90
15717;DHT22;7960;50.908;4.204;2023-04-03T08:42:44;6.50;99.90
15717;DHT22;7960;50.908;4.204;2023-04-03T08:45:17;6.60;99.90
15717;DHT22;7960;50.908;4.204;2023-04-03T08:47:52;6.70;99.90
15717;DHT22;7960;50.908;4.204;2023-04-03T08:50:20;6.80;99.90
15717;DHT22;7960;50.908;4.204;2023-04-03T08:52:51;6.90;99.90
15717;DHT22;7960;50.908;4.204;2023-04-03T08:55:24;6.90;99.90
15717;DHT22;7960;50.908;4.204;2023-04-03T08:57:58;6.90;99.90
15717;DHT22;7960;50.908;4.204;2023-04-03T09:00:30;7.00;99.90
15717;DHT22;7960;50.908;4.204;2023-04-03T09:02:59;7.20;99.90
15717;DHT22;7960;50.908;4.204;2023-04-03T09:05:35;7.50;99.90
15717;DHT22;7960;50.908;4.204;2023-04-03T09:08:14;7.60;99.90
15717;DHT22;7960;50.908;4.204;2023-04-03T09:10:45;7.60;99.90
15717;DHT22;7960;50.908;4.204;2023-04-03T09:13:18;7.80;99.90
15717;DHT22;7960;50.908;4.204;2023-04-03T09:15:49;7.80;99.90
15717;DHT22;7960;50.908;4.204;2023-04-03T09:18:20;7.90;99.90
15717;DHT22;7960;50.908;4.204;2023-04-03T09:20:56;8.20;99.90
15717;DHT22;7960;50.908;4.204;2023-04-03T09:23:28;8.20;99.90
15717;DHT22;7960;50.908;4.204;2023-04-03T09:26:01;8.40;99.90
15717;DHT22;7960;50.908;4.204;2023-04-03T09:28:32;8.50;99.90
15717;DHT22;7960;50.908;4.204;2023-04-03T09:31:02;8.70;99.90
15717;DHT22;7960;50.908;4.204;2023-04-03T09:33:37;8.80;99.90
15717;DHT22;7960;50.908;4.204;2023-04-03T09:36:06;8.80;99.90
15717;DHT22;7960;50.908;4.204;2023-04-03T09:38:33;8.90;99.90
15717;DHT22;7960;50.908;4.204;2023-04-03T09:41:05;8.90;99.70
15717;DHT22;7960;50.908;4.204;2023-04-03T09:43:34;9.30;99.90
15717;DHT22;7960;50.908;4.204;2023-04-03T09:46:25;9.50;99.40
15717;DHT22;7960;50.908;4.204;2023-04-03T09:48:56;9.60;98.60
15717;DHT22;7960;50.908;4.204;2023-04-03T09:51:25;9.60;98.70
15717;DHT22;7960;50.908;4.204;2023-04-03T09:53:53;9.60;97.80
15717;DHT22;7960;50.908;4.204;2023-04-03T09:56:23;9.50;97.10
15717;DHT22;7960;50.908;4.204;2023-04-03T09:59:12;9.70;96.50
15717;DHT22;7960;50.908;4.204;2023-04-03T10:02:00;9.80;96.00
15717;DHT22;7960;50.908;4.204;2023-04-03T10:04:38;10.00;95.50
15717;DHT22;7960;50.908;4.204;2023-04-03T10:07:26;10.10;95.30
15717;DHT22;7960;50.908;4.204;2023-04-03T10:09:55;10.30;94.80
15717;DHT22;7960;50.908;4.204;2023-04-03T10:12:22;10.40;94.80
15717;DHT22;7960;50.908;4.204;2023-04-03T10:14:55;10.50;94.00
15717;DHT22;7960;50.908;4.204;2023-04-03T10:17:31;10.70;93.20
15717;DHT22;7960;50.908;4.204;2023-04-03T10:20:03;10.60;92.40
15717;DHT22;7960;50.908;4.204;2023-04-03T10:22:40;10.60;91.80
15717;DHT22;7960;50.908;4.204;2023-04-03T10:25:14;10.60;92.40
15717;DHT22;7960;50.908;4.204;2023-04-03T10:27:51;10.90;93.20
15717;DHT22;7960;50.908;4.204;2023-04-03T10:30:36;11.00;92.50
15717;DHT22;7960;50.908;4.204;2023-04-03T10:33:20;10.60;91.30
15717;DHT22;7960;50.908;4.204;2023-04-03T10:35:58;10.80;93.50
15717;DHT22;7960;50.908;4.204;2023-04-03T10:38:33;10.80;93.10
15717;DHT22;7960;50.908;4.204;2023-04-03T10:41:07;11.00;93.40
15717;DHT22;7960;50.908;4.204;2023-04-03T10:43:40;10.90;92.00
15717;DHT22;7960;50.908;4.204;2023-04-03T10:46:12;10.80;92.70
15717;DHT22;7960;50.908;4.204;2023-04-03T10:48:55;11.00;92.20
15717;DHT22;7960;50.908;4.204;2023-04-03T10:51:29;11.20;91.80
15717;DHT22;7960;50.908;4.204;2023-04-03T10:54:07;11.20;91.40
15717;DHT22;7960;50.908;4.204;2023-04-03T10:56:38;11.40;90.60
15717;DHT22;7960;50.908;4.204;2023-04-03T10:59:17;11.40;87.00
15717;DHT22;7960;50.908;4.204;2023-04-03T11:01:47;11.60;87.30
15717;DHT22;7960;50.908;4.204;2023-04-03T11:04:16;11.60;85.70
15717;DHT22;7960;50.908;4.204;2023-04-03T11:06:49;11.50;85.10
15717;DHT22;7960;50.908;4.204;2023-04-03T11:09:22;11.70;83.90
15717;DHT22;7960;50.908;4.204;2023-04-03T11:11:53;11.80;83.20
15717;DHT22;7960;50.908;4.204;2023-04-03T11:14:26;11.80;81.80
15717;DHT22;7960;50.908;4.204;2023-04-03T11:17:01;11.80;81.50
15717;DHT22;7960;50.908;4.204;2023-04-03T11:19:35;11.80;81.00
15717;DHT22;7960;50.908;4.204;2023-04-03T11:22:08;12.10;81.40
15717;DHT22;7960;50.908;4.204;2023-04-03T11:24:39;12.10;78.90
15717;DHT22;7960;50.908;4.204;2023-04-03T11:27:15;12.20;78.90
15717;DHT22;7960;50.908;4.204;2023-04-03T11:29:43;12.20;77.00
15717;DHT22;7960;50.908;4.204;2023-04-03T11:32:31;12.20;74.70
15717;DHT22;7960;50.908;4.204;2023-04-03T11:35:03;12.40;76.50
15717;DHT22;7960;50.908;4.204;2023-04-03T11:37:34;12.40;76.00
15717;DHT22;7960;50.908;4.204;2023-04-03T11:40:04;12.30;74.70
15717;DHT22;7960;50.908;4.204;2023-04-03T11:42:37;12.20;75.50
15717;DHT22;7960;50.908;4.204;2023-04-03T11:45:27;12.60;76.00
15717;DHT22;7960;50.908;4.204;2023-04-03T11:47:58;12.60;74.80
15717;DHT22;7960;50.908;4.204;2023-04-03T11:50:40;12.60;70.20
15717;DHT22;7960;50.908;4.204;2023-04-03T11:53:30;12.50;69.50
15717;DHT22;7960;50.908;4.204;2023-04-03T11:56:32;12.60;68.00
15717;DHT22;7960;50.908;4.204;2023-04-03T11:59:23;12.80;70.50
15717;DHT22;7960;50.908;4.204;2023-04-03T12:01:51;12.80;71.70
15717;DHT22;7960;50.908;4.204;2023-04-03T12:04:19;13.00;72.60
15717;DHT22;7960;50.908;4.204;2023-04-03T12:10:01;13.30;72.20
15717;DHT22;7960;50.908;4.204;2023-04-03T12:12:38;13.50;72.80
15717;DHT22;7960;50.908;4.204;2023-04-03T12:15:19;13.50;70.50
15717;DHT22;7960;50.908;4.204;2023-04-03T12:17:47;13.30;69.10
15717;DHT22;7960;50.908;4.204;2023-04-03T12:23:31;12.90;66.40
15717;DHT22;7960;50.908;4.204;2023-04-03T12:26:02;13.00;69.00
15717;DHT22;7960;50.908;4.204;2023-04-03T12:28:35;13.20;69.10
15717;DHT22;7960;50.908;4.204;2023-04-03T12:31:04;13.60;69.00
15717;DHT22;7960;50.908;4.204;2023-04-03T12:33:43;13.90;67.30
15717;DHT22;7960;50.908;4.204;2023-04-03T12:36:21;13.50;63.80
15717;DHT22;7960;50.908;4.204;2023-04-03T12:39:03;13.50;63.20
15717;DHT22;7960;50.908;4.204;2023-04-03T12:41:37;13.50;61.70
15717;DHT22;7960;50.908;4.204;2023-04-03T12:44:23;13.70;62.60
15717;DHT22;7960;50.908;4.204;2023-04-03T12:46:53;14.10;63.90
15717;DHT22;7960;50.908;4.204;2023-04-03T12:49:33;14.30;59.90
15717;DHT22;7960;50.908;4.204;2023-04-03T12:54:48;14.20;61.20
15717;DHT22;7960;50.908;4.204;2023-04-03T12:57:20;14.40;58.20
15717;DHT22;7960;50.908;4.204;2023-04-03T12:59:48;14.20;57.80
15717;DHT22;7960;50.908;4.204;2023-04-03T13:02:21;14.40;56.10
15717;DHT22;7960;50.908;4.204;2023-04-03T13:04:50;14.40;55.50
15717;DHT22;7960;50.908;4.204;2023-04-03T13:07:20;14.60;55.90
15717;DHT22;7960;50.908;4.204;2023-04-03T13:10:00;14.70;55.10
15717;DHT22;7960;50.908;4.204;2023-04-03T13:12:27;14.40;54.80
15717;DHT22;7960;50.908;4.204;2023-04-03T13:14:56;14.60;55.90
15717;DHT22;7960;50.908;4.204;2023-04-03T13:17:24;14.40;53.80
15717;DHT22;7960;50.908;4.204;2023-04-03T13:19:53;14.80;53.50
15717;DHT22;7960;50.908;4.204;2023-04-03T13:22:28;15.00;51.90
15717;DHT22;7960;50.908;4.204;2023-04-03T13:24:59;14.80;52.80
15717;DHT22;7960;50.908;4.204;2023-04-03T13:27:30;15.10;51.70
15717;DHT22;7960;50.908;4.204;2023-04-03T13:29:59;15.50;53.20
15717;DHT22;7960;50.908;4.204;2023-04-03T13:32:30;15.60;51.50
15717;DHT22;7960;50.908;4.204;2023-04-03T13:34:58;16.00;52.10
15717;DHT22;7960;50.908;4.204;2023-04-03T13:37:27;16.00;50.60
15717;DHT22;7960;50.908;4.204;2023-04-03T13:40:03;16.10;48.70
15717;DHT22;7960;50.908;4.204;2023-04-03T13:42:32;16.00;48.10
15717;DHT22;7960;50.908;4.204;2023-04-03T13:45:20;16.00;49.30
15717;DHT22;7960;50.908;4.204;2023-04-03T13:47:51;16.60;49.30
15717;DHT22;7960;50.908;4.204;2023-04-03T13:50:20;16.80;47.80
15717;DHT22;7960;50.908;4.204;2023-04-03T13:52:49;16.70;47.00
15717;DHT22;7960;50.908;4.204;2023-04-03T13:55:22;16.50;46.40
15717;DHT22;7960;50.908;4.204;2023-04-03T13:57:53;16.80;46.40
15717;DHT22;7960;50.908;4.204;2023-04-03T14:00:29;16.90;47.20
15717;DHT22;7960;50.908;4.204;2023-04-03T14:02:57;17.40;47.80
15717;DHT22;7960;50.908;4.204;2023-04-03T14:05:24;17.60;47.10
15717;DHT22;7960;50.908;4.204;2023-04-03T14:07:52;17.50;46.00
15717;DHT22;7960;50.908;4.204;2023-04-03T14:10:21;17.40;45.50
15717;DHT22;7960;50.908;4.204;2023-04-03T14:12:48;17.80;45.90
15717;DHT22;7960;50.908;4.204;2023-04-03T14:15:20;17.30;46.00
15717;DHT22;7960;50.908;4.204;2023-04-03T14:17:48;17.10;46.30
15717;DHT22;7960;50.908;4.204;2023-04-03T14:20:17;17.60;45.90
15717;DHT22;7960;50.908;4.204;2023-04-03T14:22:45;17.30;45.00
15717;DHT22;7960;50.908;4.204;2023-04-03T14:25:12;17.40;46.70
15717;DHT22;7960;50.908;4.204;2023-04-03T14:27:43;17.70;47.60
15717;DHT22;7960;50.908;4.204;2023-04-03T14:30:15;17.80;46.90
15717;DHT22;7960;50.908;4.204;2023-04-03T14:32:42;18.00;45.40
15717;DHT22;7960;50.908;4.204;2023-04-03T14:35:09;18.20;46.50
15717;DHT22;7960;50.908;4.204;2023-04-03T14:37:36;18.20;45.30
15717;DHT22;7960;50.908;4.204;2023-04-03T14:40:05;18.00;45.60
15717;DHT22;7960;50.908;4.204;2023-04-03T14:42:34;18.10;45.90
15717;DHT22;7960;50.908;4.204;2023-04-03T14:45:05;18.50;46.50
15717;DHT22;7960;50.908;4.204;2023-04-03T14:47:33;19.20;45.20
15717;DHT22;7960;50.908;4.204;2023-04-03T14:50:03;19.40;43.40
15717;DHT22;7960;50.908;4.204;2023-04-03T14:52:33;19.10;42.80
15717;DHT22;7960;50.908;4.204;2023-04-03T14:55:04;18.70;41.30
15717;DHT22;7960;50.908;4.204;2023-04-03T14:57:32;18.50;42.60
15717;DHT22;7960;50.908;4.204;2023-04-03T14:59:59;18.20;42.80
15717;DHT22;7960;50.908;4.204;2023-04-03T15:02:30;17.90;42.60
15717;DHT22;7960;50.908;4.204;2023-04-03T15:04:58;17.90;42.70
15717;DHT22;7960;50.908;4.204;2023-04-03T15:07:27;18.40;42.50
15717;DHT22;7960;50.908;4.204;2023-04-03T15:09:55;18.40;42.20
15717;DHT22;7960;50.908;4.204;2023-04-03T15:12:23;18.00;41.90
15717;DHT22;7960;50.908;4.204;2023-04-03T15:14:50;18.00;43.00
15717;DHT22;7960;50.908;4.204;2023-04-03T15:17:21;17.80;41.90
15717;DHT22;7960;50.908;4.204;2023-04-03T15:19:52;18.10;42.40
15717;DHT22;7960;50.908;4.204;2023-04-03T15:22:19;17.90;40.70
15717;DHT22;7960;50.908;4.204;2023-04-03T15:24:46;17.90;40.00
15717;DHT22;7960;50.908;4.204;2023-04-03T15:27:14;17.70;41.00
15717;DHT22;7960;50.908;4.204;2023-04-03T15:29:42;17.60;40.80
15717;DHT22;7960;50.908;4.204;2023-04-03T15:32:09;16.80;39.80
15717;DHT22;7960;50.908;4.204;2023-04-03T15:34:36;16.70;40.30
15717;DHT22;7960;50.908;4.204;2023-04-03T15:37:05;16.20;40.20
15717;DHT22;7960;50.908;4.204;2023-04-03T15:39:32;16.50;40.00
15717;DHT22;7960;50.908;4.204;2023-04-03T15:41:59;16.50;40.20
15717;DHT22;7960;50.908;4.204;2023-04-03T15:44:32;16.50;40.60
15717;DHT22;7960;50.908;4.204;2023-04-03T15:47:01;16.60;40.80
15717;DHT22;7960;50.908;4.204;2023-04-03T15:49:28;16.90;40.50
15717;DHT22;7960;50.908;4.204;2023-04-03T15:51:55;16.60;40.60
15717;DHT22;7960;50.908;4.204;2023-04-03T15:54:23;17.20;42.40
15717;DHT22;7960;50.908;4.204;2023-04-03T15:56:52;17.10;41.40
15717;DHT22;7960;50.908;4.204;2023-04-03T15:59:19;16.90;41.50
15717;DHT22;7960;50.908;4.204;2023-04-03T16:01:46;17.30;40.30
15717;DHT22;7960;50.908;4.204;2023-04-03T16:04:13;17.10;39.50
15717;DHT22;7960;50.908;4.204;2023-04-03T16:06:40;16.70;40.50
15717;DHT22;7960;50.908;4.204;2023-04-03T16:09:09;16.80;41.30
15717;DHT22;7960;50.908;4.204;2023-04-03T16:11:38;16.80;40.30
15717;DHT22;7960;50.908;4.204;2023-04-03T16:14:05;16.60;39.40
15717;DHT22;7960;50.908;4.204;2023-04-03T16:16:33;16.50;40.50
15717;DHT22;7960;50.908;4.204;2023-04-03T16:18:59;15.90;41.00
15717;DHT22;7960;50.908;4.204;2023-04-03T16:23:56;15.30;41.00
15717;DHT22;7960;50.908;4.204;2023-04-03T16:26:23;14.60;40.40
15717;DHT22;7960;50.908;4.204;2023-04-03T16:28:52;14.40;41.70